Time;durP1;ratioP1;P1;durP2;ratioP2;P2;SDS_P1;SDS_P2;PMS_P1;PMS_P2;Temp;Humidity;BMP_temperature;BMP_pressure;BME280_temperature;BME280_humidity;BME280_pressure;Samples;Min_cycle;Max_cycle;Signal;HPM_P1;HPM_P2
2023/06/06 00:02:30;;;;;;;3.03;1.60;;;16.10;57.10;;;;;;5179137;28;20279;-44
2023/06/06 00:05:01;;;;;;;2.70;1.97;;;16.00;57.20;;;;;;5178045;28;20295;-45
2023/06/06 00:07:32;;;;;;;5.10;2.20;;;16.00;57.30;;;;;;5195509;28;20496;-44
2023/06/06 00:10:03;;;;;;;2.37;2.17;;;16.00;57.60;;;;;;5204955;28;20438;-43
2023/06/06 00:12:34;;;;;;;2.20;2.00;;;15.90;57.80;;;;;;5179240;28;20273;-44
2023/06/06 00:15:05;;;;;;;2.07;1.80;;;15.90;58.10;;;;;;5196732;28;20470;-43
2023/06/06 00:17:38;;;;;;;1.90;1.80;;;15.80;58.20;;;;;;5194502;28;20215;-47
2023/06/06 00:20:11;;;;;;;1.70;1.60;;;15.80;58.60;;;;;;5196031;28;20493;-44
2023/06/06 00:22:43;;;;;;;2.93;2.10;;;15.80;58.80;;;;;;5193758;28;20527;-43
2023/06/06 00:25:14;;;;;;;1.83;1.67;;;15.70;59.00;;;;;;5197764;28;20465;-44
2023/06/06 00:27:44;;;;;;;1.80;1.70;;;15.70;59.20;;;;;;5189871;28;20445;-44
2023/06/06 00:30:15;;;;;;;1.77;1.70;;;15.70;59.40;;;;;;5187874;28;20206;-44
2023/06/06 00:32:46;;;;;;;4.00;2.23;;;15.70;59.70;;;;;;5165545;28;20179;-45
2023/06/06 00:35:16;;;;;;;2.93;1.87;;;15.60;60.00;;;;;;5172017;28;20224;-46
2023/06/06 00:37:47;;;;;;;4.70;1.80;;;15.60;60.40;;;;;;5202404;28;20239;-45
2023/06/06 00:40:17;;;;;;;3.47;2.47;;;15.60;60.60;;;;;;5191849;28;20171;-44
2023/06/06 00:42:49;;;;;;;2.80;1.93;;;15.50;61.20;;;;;;5198533;28;20191;-44
2023/06/06 00:45:21;;;;;;;1.40;1.40;;;15.50;61.40;;;;;;5207962;28;20289;-44
2023/06/06 00:47:51;;;;;;;4.83;1.60;;;15.50;62.00;;;;;;5182434;28;20446;-45
2023/06/06 00:50:23;;;;;;;2.67;2.03;;;15.40;62.40;;;;;;5205224;28;20502;-44
2023/06/06 00:52:55;;;;;;;1.93;1.73;;;15.40;63.00;;;;;;5196456;28;20191;-44
2023/06/06 00:55:26;;;;;;;1.97;1.97;;;15.40;63.50;;;;;;5210660;28;20461;-45
2023/06/06 00:57:59;;;;;;;3.17;2.40;;;15.30;64.00;;;;;;5202453;28;20473;-45
2023/06/06 01:00:32;;;;;;;2.00;1.90;;;15.30;64.50;;;;;;5201320;28;20426;-44
2023/06/06 01:03:03;;;;;;;2.00;1.73;;;15.30;65.00;;;;;;5201496;28;20449;-43
2023/06/06 01:05:35;;;;;;;2.43;2.23;;;15.30;65.00;;;;;;5189234;28;20447;-45
2023/06/06 01:08:07;;;;;;;3.17;2.10;;;15.30;65.20;;;;;;5186857;28;20469;-44
2023/06/06 01:10:39;;;;;;;2.23;1.70;;;15.20;65.30;;;;;;5182529;28;20509;-44
2023/06/06 01:13:18;;;;;;;2.27;2.00;;;15.20;65.50;;;;;;5183719;28;20442;-44
2023/06/06 01:16:05;;;;;;;6.60;2.17;;;15.20;65.90;;;;;;5199095;28;20981;-44
2023/06/06 01:18:37;;;;;;;6.37;2.20;;;15.30;65.80;;;;;;5196006;28;20528;-43
2023/06/06 01:21:09;;;;;;;2.10;1.83;;;15.20;65.90;;;;;;5182580;28;20926;-44
2023/06/06 01:23:43;;;;;;;1.87;1.77;;;15.20;65.90;;;;;;5206521;28;20540;-44
2023/06/06 01:26:13;;;;;;;2.30;2.13;;;15.20;65.90;;;;;;5205964;28;20439;-44
2023/06/06 01:28:44;;;;;;;4.03;1.90;;;15.20;66.10;;;;;;5195923;28;20434;-46
2023/06/06 01:31:18;;;;;;;2.70;2.20;;;15.20;66.10;;;;;;5197174;28;20183;-44
2023/06/06 01:33:54;;;;;;;3.33;2.00;;;15.20;66.10;;;;;;5163636;28;20184;-44
2023/06/06 01:36:48;;;;;;;1.93;1.83;;;15.20;66.10;;;;;;5201356;28;20454;-44
2023/06/06 01:39:21;;;;;;;2.67;2.40;;;15.10;66.10;;;;;;5198095;28;20573;-43
2023/06/06 01:41:56;;;;;;;1.73;1.63;;;15.10;66.20;;;;;;5185388;28;20446;-44
2023/06/06 01:44:30;;;;;;;2.13;2.03;;;15.10;66.50;;;;;;5196659;28;20449;-44
2023/06/06 01:47:02;;;;;;;1.60;1.60;;;15.10;66.40;;;;;;5202434;28;20442;-45
2023/06/06 01:49:33;;;;;;;3.53;1.90;;;15.10;66.70;;;;;;5191583;28;20441;-43
2023/06/06 01:52:05;;;;;;;1.67;1.20;;;15.00;66.90;;;;;;5170472;28;20433;-44
2023/06/06 01:54:36;;;;;;;1.30;1.30;;;15.00;67.60;;;;;;5181499;28;20621;-43
2023/06/06 01:57:10;;;;;;;1.80;1.70;;;15.00;67.70;;;;;;5207580;28;20581;-43
2023/06/06 01:59:41;;;;;;;3.00;1.70;;;14.90;68.20;;;;;;5200882;28;20176;-43
2023/06/06 02:02:11;;;;;;;7.73;2.07;;;14.90;68.80;;;;;;5182628;28;20431;-44
2023/06/06 02:04:42;;;;;;;2.13;1.90;;;14.80;69.10;;;;;;5188047;28;20207;-44
2023/06/06 02:07:15;;;;;;;2.70;1.90;;;14.80;69.60;;;;;;5193796;28;20664;-44
2023/06/06 02:09:45;;;;;;;4.77;1.70;;;14.80;69.60;;;;;;5188174;28;20242;-45
2023/06/06 02:12:16;;;;;;;1.93;1.70;;;14.80;70.30;;;;;;5187079;28;20981;-44
2023/06/06 02:14:48;;;;;;;7.03;1.63;;;14.70;70.70;;;;;;5201531;28;20669;-44
2023/06/06 02:17:19;;;;;;;1.83;1.73;;;14.70;71.30;;;;;;5193289;28;20221;-44
2023/06/06 02:19:49;;;;;;;2.70;2.20;;;14.70;71.10;;;;;;5200356;28;20439;-44
2023/06/06 02:22:20;;;;;;;2.27;2.07;;;14.70;71.60;;;;;;5188642;28;20277;-42
2023/06/06 02:24:52;;;;;;;3.90;2.07;;;14.70;71.70;;;;;;5188414;28;20212;-44
2023/06/06 02:27:23;;;;;;;2.63;1.63;;;14.60;72.00;;;;;;5184574;28;20192;-44
2023/06/06 02:29:54;;;;;;;1.67;1.57;;;14.60;72.40;;;;;;5204466;28;20471;-44
2023/06/06 02:32:24;;;;;;;1.37;1.30;;;14.60;72.70;;;;;;5207933;28;20533;-43
2023/06/06 02:34:57;;;;;;;1.93;1.87;;;14.60;72.60;;;;;;5189993;28;20219;-43
2023/06/06 02:37:28;;;;;;;3.40;2.10;;;14.60;72.90;;;;;;5201358;28;20200;-44
2023/06/06 02:39:59;;;;;;;4.40;2.00;;;14.60;72.90;;;;;;5190884;28;20992;-44
2023/06/06 02:42:30;;;;;;;5.00;1.33;;;14.60;73.00;;;;;;5202144;28;20172;-44
2023/06/06 02:45:01;;;;;;;2.00;1.80;;;14.60;72.90;;;;;;5184212;28;20473;-43
2023/06/06 02:47:32;;;;;;;2.17;1.97;;;14.60;73.30;;;;;;5183250;28;20176;-44
2023/06/06 02:50:03;;;;;;;1.73;1.73;;;14.60;73.60;;;;;;5210285;28;20533;-44
2023/06/06 02:52:35;;;;;;;7.20;2.20;;;14.60;74.00;;;;;;5199827;28;20652;-44
2023/06/06 02:55:07;;;;;;;1.97;1.87;;;14.60;74.10;;;;;;5187604;28;20464;-46
2023/06/06 02:57:37;;;;;;;2.77;2.57;;;14.60;74.30;;;;;;5198539;28;20955;-44
2023/06/06 03:00:09;;;;;;;2.37;2.23;;;14.60;74.40;;;;;;5206169;28;20572;-44
2023/06/06 03:02:39;;;;;;;1.70;1.60;;;14.60;74.30;;;;;;5208943;28;20547;-43
2023/06/06 03:05:11;;;;;;;3.37;2.00;;;14.60;74.50;;;;;;5197320;28;20456;-44
2023/06/06 03:07:42;;;;;;;3.23;2.53;;;14.60;75.00;;;;;;5199852;28;20188;-43
2023/06/06 03:10:13;;;;;;;2.10;1.90;;;14.60;75.60;;;;;;5198498;28;20552;-43
2023/06/06 03:12:43;;;;;;;1.80;1.80;;;14.50;75.80;;;;;;5179224;28;20187;-43
2023/06/06 03:15:15;;;;;;;7.20;2.50;;;14.60;75.90;;;;;;5199604;28;20203;-44
2023/06/06 03:17:48;;;;;;;6.40;2.00;;;14.50;76.40;;;;;;5182268;28;20203;-43
2023/06/06 03:20:20;;;;;;;2.00;1.90;;;14.50;76.10;;;;;;5202916;28;20790;-43
2023/06/06 03:22:50;;;;;;;2.70;2.50;;;14.60;76.20;;;;;;5202243;28;21015;-44
2023/06/06 03:25:24;;;;;;;2.70;2.50;;;14.50;76.70;;;;;;5184456;28;20493;-45
2023/06/06 03:27:55;;;;;;;3.33;1.93;;;14.50;76.60;;;;;;5209164;28;20272;-44
2023/06/06 03:30:26;;;;;;;1.93;1.70;;;14.50;76.90;;;;;;5187821;28;20549;-44
2023/06/06 03:32:57;;;;;;;2.30;2.10;;;14.50;76.80;;;;;;5184866;28;20193;-44
2023/06/06 03:35:30;;;;;;;4.40;2.13;;;14.60;76.90;;;;;;5203256;28;20218;-43
2023/06/06 03:38:03;;;;;;;2.07;1.77;;;14.50;76.70;;;;;;5201559;28;20474;-43
2023/06/06 03:40:34;;;;;;;3.60;1.83;;;14.60;76.90;;;;;;5202471;28;20496;-43
2023/06/06 03:43:05;;;;;;;2.33;2.10;;;14.50;77.00;;;;;;5187132;28;20434;-43
2023/06/06 03:45:36;;;;;;;8.80;2.20;;;14.60;76.90;;;;;;5191424;28;20454;-43
2023/06/06 03:48:09;;;;;;;1.93;1.83;;;14.60;77.20;;;;;;5208273;28;20453;-43
2023/06/06 03:50:40;;;;;;;1.90;1.77;;;14.60;77.40;;;;;;5206088;28;20175;-44
2023/06/06 03:53:10;;;;;;;4.33;2.17;;;14.60;77.60;;;;;;5204086;28;20430;-45
2023/06/06 03:55:41;;;;;;;1.60;1.50;;;14.60;77.80;;;;;;5183697;28;20210;-44
2023/06/06 03:58:15;;;;;;;3.40;1.97;;;14.60;77.40;;;;;;5201145;28;20562;-43
2023/06/06 04:00:46;;;;;;;3.10;2.23;;;14.60;77.50;;;;;;5198275;28;20488;-46
2023/06/06 04:03:17;;;;;;;3.00;2.70;;;14.60;77.20;;;;;;5201520;28;20859;-45
2023/06/06 04:05:48;;;;;;;1.87;1.77;;;14.70;77.30;;;;;;5194723;28;20283;-45
2023/06/06 04:08:19;;;;;;;6.20;1.63;;;14.80;76.70;;;;;;5183739;28;20194;-44
2023/06/06 04:10:49;;;;;;;4.27;1.57;;;14.90;76.60;;;;;;5205538;28;20195;-44
2023/06/06 04:13:20;;;;;;;10.17;2.03;;;14.90;76.10;;;;;;5168775;28;20188;-44
2023/06/06 04:15:51;;;;;;;3.87;1.83;;;15.00;75.80;;;;;;5181048;28;20214;-44
2023/06/06 04:18:21;;;;;;;3.60;2.03;;;15.10;75.20;;;;;;5206919;28;20217;-44
2023/06/06 04:20:52;;;;;;;3.37;1.80;;;15.20;74.80;;;;;;5187115;28;20186;-46
2023/06/06 04:23:23;;;;;;;2.23;2.13;;;15.30;73.70;;;;;;5196241;28;20191;-44
2023/06/06 04:25:54;;;;;;;2.87;2.57;;;15.50;72.00;;;;;;5180574;28;20291;-45
2023/06/06 04:28:24;;;;;;;4.73;2.20;;;15.60;70.90;;;;;;5204045;28;20247;-43
2023/06/06 04:30:55;;;;;;;2.27;2.17;;;15.90;69.70;;;;;;5178401;28;21034;-43
2023/06/06 04:33:30;;;;;;;2.23;1.70;;;16.00;68.10;;;;;;5200060;28;20667;-43
2023/06/06 04:36:00;;;;;;;2.07;1.97;;;16.20;67.90;;;;;;5198196;28;20773;-45
2023/06/06 04:38:31;;;;;;;10.50;2.00;;;16.20;67.10;;;;;;5183685;28;20735;-45
2023/06/06 04:41:02;;;;;;;2.30;2.10;;;16.30;66.70;;;;;;5189508;28;20226;-45
2023/06/06 04:43:32;;;;;;;2.00;1.87;;;16.70;66.10;;;;;;5185384;28;20180;-45
2023/06/06 04:46:03;;;;;;;5.93;2.83;;;17.00;63.50;;;;;;5164282;28;20207;-45
2023/06/06 04:48:34;;;;;;;2.50;2.40;;;17.20;62.40;;;;;;5169034;28;20526;-45
2023/06/06 04:51:04;;;;;;;2.20;2.10;;;17.60;61.30;;;;;;5179335;28;20192;-44
2023/06/06 04:53:42;;;;;;;4.10;2.13;;;18.20;59.40;;;;;;5180693;28;20188;-44
2023/06/06 04:56:13;;;;;;;2.63;2.10;;;19.10;57.30;;;;;;5191035;28;20186;-45
2023/06/06 04:58:45;;;;;;;2.10;2.00;;;19.80;54.30;;;;;;5175581;28;20531;-45
2023/06/06 05:01:15;;;;;;;2.83;1.80;;;20.00;53.00;;;;;;5193553;28;20208;-45
2023/06/06 05:03:46;;;;;;;2.60;2.10;;;20.10;52.40;;;;;;5197431;28;20467;-45
2023/06/06 05:06:17;;;;;;;2.50;1.80;;;20.30;51.90;;;;;;5195512;28;20641;-46
2023/06/06 05:08:48;;;;;;;2.33;2.03;;;21.00;50.60;;;;;;5197957;28;20180;-44
2023/06/06 05:11:19;;;;;;;1.80;1.70;;;21.90;49.20;;;;;;5195251;28;20442;-46
2023/06/06 05:13:49;;;;;;;5.03;2.03;;;21.60;48.10;;;;;;5182510;28;20282;-46
2023/06/06 05:16:21;;;;;;;2.10;2.00;;;21.70;48.10;;;;;;5188769;28;20212;-45
2023/06/06 05:18:51;;;;;;;1.70;1.60;;;22.40;48.90;;;;;;5189841;28;20200;-46
2023/06/06 05:21:22;;;;;;;2.50;2.07;;;23.60;45.70;;;;;;5170391;28;20923;-46
2023/06/06 05:23:54;;;;;;;2.83;1.87;;;24.60;43.60;;;;;;5178093;28;20220;-45
2023/06/06 05:26:25;;;;;;;2.70;2.50;;;25.50;42.00;;;;;;5186492;28;20230;-45
2023/06/06 05:28:56;;;;;;;2.50;1.90;;;26.00;39.50;;;;;;5201058;28;20851;-45
2023/06/06 05:31:26;;;;;;;7.93;2.23;;;26.70;38.50;;;;;;5197261;28;20499;-46
2023/06/06 05:33:57;;;;;;;3.17;2.13;;;27.30;36.70;;;;;;5199149;28;20221;-45
2023/06/06 05:36:28;;;;;;;4.43;2.07;;;27.10;36.20;;;;;;5198814;28;20208;-45
2023/06/06 05:39:00;;;;;;;8.13;1.77;;;26.90;36.80;;;;;;5197764;28;20239;-45
2023/06/06 05:41:31;;;;;;;4.73;1.80;;;26.70;36.40;;;;;;5179667;28;20628;-46
2023/06/06 05:44:01;;;;;;;2.33;2.13;;;26.30;36.80;;;;;;5180421;28;20619;-46
2023/06/06 05:46:32;;;;;;;3.33;2.03;;;26.30;38.40;;;;;;5205128;28;20569;-46
2023/06/06 05:49:02;;;;;;;3.93;2.77;;;27.60;36.00;;;;;;5207919;28;20199;-45
2023/06/06 05:51:34;;;;;;;7.67;3.40;;;28.80;35.00;;;;;;5202306;28;20192;-46
2023/06/06 05:54:06;;;;;;;15.17;2.97;;;28.80;33.70;;;;;;5199907;28;20219;-45
2023/06/06 05:56:36;;;;;;;2.93;1.97;;;28.90;32.90;;;;;;5207350;28;20559;-44
2023/06/06 05:59:07;;;;;;;7.03;2.40;;;29.00;32.00;;;;;;5191922;28;20955;-44
2023/06/06 06:01:39;;;;;;;3.97;2.23;;;29.20;31.50;;;;;;5187557;28;20184;-45
2023/06/06 06:04:10;;;;;;;8.07;2.30;;;29.10;32.40;;;;;;5204137;28;20222;-45
2023/06/06 06:06:40;;;;;;;2.70;2.50;;;30.00;31.50;;;;;;5178493;28;20438;-44
2023/06/06 06:09:11;;;;;;;1.93;1.83;;;30.20;30.20;;;;;;5186126;28;20183;-45
2023/06/06 06:11:43;;;;;;;7.60;2.40;;;30.70;30.40;;;;;;5208439;28;20221;-45
2023/06/06 06:14:13;;;;;;;5.40;2.10;;;30.70;29.60;;;;;;5205000;28;20277;-44
2023/06/06 06:16:44;;;;;;;10.70;2.30;;;30.10;30.40;;;;;;5200232;28;20442;-45
2023/06/06 06:19:15;;;;;;;6.40;2.93;;;30.40;29.80;;;;;;5200825;28;20267;-45
2023/06/06 06:21:45;;;;;;;2.60;2.43;;;30.10;29.70;;;;;;5207255;28;20180;-45
2023/06/06 06:24:16;;;;;;;1.97;1.87;;;30.20;29.90;;;;;;5182305;28;20199;-44
2023/06/06 06:26:48;;;;;;;5.37;2.47;;;30.90;29.30;;;;;;5188271;28;20271;-45
2023/06/06 06:29:18;;;;;;;5.37;2.60;;;32.10;28.60;;;;;;5183854;28;20179;-45
2023/06/06 06:31:49;;;;;;;16.37;2.30;;;33.20;27.50;;;;;;5205970;28;20494;-45
2023/06/06 06:34:19;;;;;;;7.47;2.80;;;33.50;26.50;;;;;;5187728;28;20216;-45
2023/06/06 06:36:50;;;;;;;9.50;2.90;;;32.80;26.50;;;;;;5202971;28;20678;-44
2023/06/06 06:39:21;;;;;;;2.10;1.97;;;31.40;27.40;;;;;;5192163;28;20176;-44
2023/06/06 06:41:52;;;;;;;2.50;1.93;;;30.40;28.30;;;;;;5186675;28;20575;-44
2023/06/06 06:44:23;;;;;;;5.20;2.63;;;30.20;29.00;;;;;;5180575;28;20199;-44
2023/06/06 06:46:54;;;;;;;7.13;2.53;;;30.60;28.90;;;;;;5203572;28;20513;-44
2023/06/06 06:49:24;;;;;;;2.77;2.17;;;31.70;28.30;;;;;;5181322;28;20486;-44
2023/06/06 06:51:56;;;;;;;1.97;1.87;;;32.30;27.40;;;;;;5188452;28;20270;-45
2023/06/06 06:54:26;;;;;;;10.77;2.93;;;31.60;27.50;;;;;;5204007;28;20226;-43
2023/06/06 06:56:57;;;;;;;9.13;1.97;;;30.70;28.40;;;;;;5203894;28;20427;-44
2023/06/06 06:59:28;;;;;;;2.40;2.30;;;29.60;29.20;;;;;;5200029;28;20210;-45
2023/06/06 07:01:59;;;;;;;22.43;2.80;;;27.80;31.50;;;;;;5195891;28;20222;-44
2023/06/06 07:04:30;;;;;;;14.20;2.40;;;26.00;34.10;;;;;;5211175;28;20218;-44
2023/06/06 07:07:01;;;;;;;3.23;1.90;;;24.50;36.40;;;;;;5202410;28;20934;-44
2023/06/06 07:09:32;;;;;;;3.00;2.30;;;23.70;37.90;;;;;;5187627;28;21082;-44
2023/06/06 07:12:07;;;;;;;5.03;2.97;;;23.30;39.20;;;;;;5195884;28;20181;-46
2023/06/06 07:14:39;;;;;;;7.53;2.30;;;23.00;40.00;;;;;;5200813;28;20457;-45
2023/06/06 07:17:09;;;;;;;4.23;2.30;;;22.60;40.10;;;;;;5205367;28;20477;-45
2023/06/06 07:19:42;;;;;;;3.13;2.00;;;22.40;40.70;;;;;;5185748;28;20434;-51
2023/06/06 07:22:13;;;;;;;11.63;2.30;;;22.30;41.10;;;;;;5200805;28;20179;-44
2023/06/06 07:24:45;;;;;;;8.93;2.87;;;22.20;41.40;;;;;;5208621;28;21011;-45
2023/06/06 07:27:18;;;;;;;2.50;2.30;;;22.00;42.20;;;;;;5198888;28;20425;-44
2023/06/06 07:29:48;;;;;;;5.43;2.73;;;22.00;41.80;;;;;;5208994;28;20421;-45
2023/06/06 07:32:19;;;;;;;5.03;2.33;;;22.10;42.60;;;;;;5202518;28;20438;-45
2023/06/06 07:34:50;;;;;;;3.07;2.27;;;22.20;42.30;;;;;;5178997;28;20309;-45
2023/06/06 07:37:21;;;;;;;2.60;2.40;;;22.30;42.60;;;;;;5203183;28;20584;-46
2023/06/06 07:39:52;;;;;;;2.63;2.47;;;22.40;42.10;;;;;;5176680;28;20435;-46
2023/06/06 07:42:22;;;;;;;7.03;2.47;;;22.80;41.90;;;;;;5202944;28;20171;-45
2023/06/06 07:44:55;;;;;;;6.57;2.50;;;23.20;40.80;;;;;;5200505;28;20290;-46
2023/06/06 07:47:26;;;;;;;10.50;3.70;;;23.30;40.60;;;;;;5180690;28;20532;-44
2023/06/06 07:49:57;;;;;;;4.50;3.00;;;23.40;40.10;;;;;;5208828;28;20786;-46
2023/06/06 07:52:28;;;;;;;5.83;3.03;;;23.40;40.10;;;;;;5179106;28;20445;-45
2023/06/06 07:55:01;;;;;;;7.43;2.57;;;23.40;41.00;;;;;;5176546;28;20319;-45
2023/06/06 07:57:33;;;;;;;3.33;3.03;;;23.40;40.80;;;;;;5196029;28;20235;-44
2023/06/06 08:00:07;;;;;;;2.07;1.97;;;23.40;40.50;;;;;;5198354;28;20434;-46
2023/06/06 08:02:40;;;;;;;5.50;2.90;;;23.90;41.00;;;;;;5182442;28;20529;-44
2023/06/06 08:05:11;;;;;;;2.43;2.23;;;24.30;40.10;;;;;;5199775;28;20438;-45
2023/06/06 08:07:42;;;;;;;2.30;2.20;;;24.50;39.70;;;;;;5203364;28;20783;-45
2023/06/06 08:10:12;;;;;;;2.50;2.30;;;24.60;39.40;;;;;;5199309;28;20614;-45
2023/06/06 08:12:45;;;;;;;2.83;2.30;;;24.50;39.60;;;;;;5207008;28;20229;-46
2023/06/06 08:15:16;;;;;;;10.03;2.60;;;24.50;39.30;;;;;;5211863;28;20203;-46
2023/06/06 08:17:46;;;;;;;7.23;2.80;;;24.30;39.90;;;;;;5194313;28;20462;-45
2023/06/06 08:20:17;;;;;;;6.00;3.77;;;24.40;39.80;;;;;;5187084;28;20222;-45
2023/06/06 08:22:52;;;;;;;7.37;2.73;;;24.40;39.20;;;;;;5176169;28;20473;-45
2023/06/06 08:25:22;;;;;;;2.50;2.30;;;24.30;39.40;;;;;;5205042;28;20571;-46
2023/06/06 08:27:53;;;;;;;2.60;2.37;;;24.40;39.20;;;;;;5197511;28;20459;-45
2023/06/06 08:30:24;;;;;;;3.80;2.47;;;24.40;39.60;;;;;;5181360;28;20184;-45
2023/06/06 08:32:54;;;;;;;7.67;3.23;;;24.40;39.40;;;;;;5183609;28;20666;-46
2023/06/06 08:35:25;;;;;;;3.30;3.00;;;24.40;39.70;;;;;;5205264;28;20322;-47
2023/06/06 08:37:56;;;;;;;3.67;2.30;;;24.20;39.00;;;;;;5178901;28;20226;-45
2023/06/06 08:40:26;;;;;;;3.10;2.90;;;24.20;39.70;;;;;;5195070;28;20242;-46
2023/06/06 08:42:59;;;;;;;6.00;3.17;;;24.20;39.40;;;;;;5204497;28;20737;-45
2023/06/06 08:45:32;;;;;;;8.20;2.97;;;24.10;40.00;;;;;;5200053;28;20200;-46
2023/06/06 08:48:04;;;;;;;2.40;2.30;;;23.90;39.60;;;;;;5198522;28;21141;-44
2023/06/06 08:50:35;;;;;;;2.43;2.30;;;23.80;40.00;;;;;;5199385;28;20478;-46
2023/06/06 08:53:07;;;;;;;3.30;2.43;;;23.70;40.50;;;;;;5199893;28;20429;-46
2023/06/06 08:55:37;;;;;;;3.53;3.23;;;23.60;40.40;;;;;;5197459;28;20502;-46
2023/06/06 08:58:11;;;;;;;2.67;2.23;;;23.60;40.30;;;;;;5204069;28;20519;-45
2023/06/06 09:00:42;;;;;;;7.73;3.47;;;23.60;40.10;;;;;;5207922;28;20179;-45
2023/06/06 09:03:13;;;;;;;2.70;2.60;;;23.70;40.30;;;;;;5207373;28;20558;-45
2023/06/06 09:05:46;;;;;;;5.33;2.53;;;23.80;40.30;;;;;;5185170;28;20233;-45
2023/06/06 09:08:19;;;;;;;3.17;2.90;;;24.30;40.00;;;;;;5196807;28;20512;-45
2023/06/06 09:10:49;;;;;;;4.57;2.60;;;24.40;39.30;;;;;;5205633;28;20459;-45
2023/06/06 09:13:20;;;;;;;3.50;2.57;;;24.50;38.90;;;;;;5203715;28;21000;-43
2023/06/06 09:15:52;;;;;;;3.53;2.80;;;24.70;38.50;;;;;;5202651;28;20247;-46
2023/06/06 09:18:27;;;;;;;3.40;3.20;;;24.70;38.50;;;;;;5193690;28;20226;-46
2023/06/06 09:20:58;;;;;;;8.47;3.40;;;25.00;38.80;;;;;;5187311;28;20442;-44
2023/06/06 09:23:30;;;;;;;9.40;3.10;;;25.00;37.90;;;;;;5193652;28;20671;-47
2023/06/06 09:26:00;;;;;;;12.20;3.13;;;24.80;38.50;;;;;;5185734;28;20219;-45
2023/06/06 09:28:41;;;;;;;11.80;3.30;;;24.80;38.60;;;;;;5188751;28;20443;-43
2023/06/06 09:31:29;;;;;;;9.80;2.90;;;25.00;38.50;;;;;;5213008;28;20218;-43
2023/06/06 09:34:01;;;;;;;4.00;3.10;;;25.20;37.90;;;;;;5210894;28;20462;-44
2023/06/06 09:36:32;;;;;;;9.23;3.10;;;25.50;38.30;;;;;;5189009;28;20434;-45
2023/06/06 09:39:12;;;;;;;5.60;3.37;;;25.60;37.30;;;;;;5207267;28;20547;-44
2023/06/06 09:41:47;;;;;;;3.07;2.60;;;25.80;37.10;;;;;;5203529;28;20178;-45
2023/06/06 09:44:20;;;;;;;3.37;3.17;;;25.80;37.70;;;;;;5187917;28;20459;-45
2023/06/06 09:46:59;;;;;;;10.93;3.13;;;25.90;37.00;;;;;;5188486;28;20439;-47
2023/06/06 09:49:36;;;;;;;4.70;2.93;;;26.20;37.40;;;;;;5185558;28;20438;-44
2023/06/06 09:52:13;;;;;;;11.00;3.40;;;26.10;36.60;;;;;;5205696;28;20442;-45
2023/06/06 09:54:43;;;;;;;4.30;2.50;;;26.00;37.20;;;;;;5198624;28;20453;-44
2023/06/06 09:57:16;;;;;;;3.47;3.17;;;26.20;37.40;;;;;;5204282;28;20468;-45
2023/06/06 09:59:48;;;;;;;6.90;3.10;;;26.10;37.50;;;;;;5207617;28;20188;-45
2023/06/06 10:02:21;;;;;;;17.37;3.73;;;25.80;37.90;;;;;;5205761;28;20429;-42
2023/06/06 10:04:54;;;;;;;4.10;3.47;;;25.70;38.30;;;;;;5208913;28;20483;-44
2023/06/06 10:07:26;;;;;;;6.00;3.10;;;25.50;38.70;;;;;;5211085;28;20445;-44
2023/06/06 10:09:57;;;;;;;10.73;3.57;;;25.50;38.90;;;;;;5215042;28;20461;-43
2023/06/06 10:12:31;;;;;;;10.70;2.73;;;25.90;39.00;;;;;;5199191;28;20465;-44
2023/06/06 10:15:03;;;;;;;6.83;2.83;;;26.00;38.50;;;;;;5177615;28;20465;-44
2023/06/06 10:17:40;;;;;;;2.63;2.40;;;26.20;39.60;;;;;;5194694;28;20463;-46
2023/06/06 10:20:12;;;;;;;4.10;2.63;;;26.60;38.40;;;;;;5194565;28;20532;-44
2023/06/06 10:22:42;;;;;;;4.43;2.40;;;26.70;38.30;;;;;;5198595;28;20924;-46
2023/06/06 10:25:14;;;;;;;2.77;2.57;;;26.80;38.40;;;;;;5182302;28;20604;-44
2023/06/06 10:28:31;;;;;;;3.23;2.83;;;27.30;37.70;;;;;;5198819;28;20881;-45
2023/06/06 10:31:15;;;;;;;6.77;3.47;;;27.80;37.30;;;;;;5201060;28;20545;-44
2023/06/06 10:33:55;;;;;;;6.40;3.50;;;27.50;36.50;;;;;;5203082;28;20572;-43
2023/06/06 10:36:26;;;;;;;2.70;2.60;;;27.40;36.90;;;;;;5188773;28;20489;-46
2023/06/06 10:39:19;;;;;;;8.10;3.17;;;27.50;37.40;;;;;;5195944;28;20473;-45
2023/06/06 10:41:52;;;;;;;5.23;3.03;;;27.00;37.50;;;;;;5198517;28;20435;-46
2023/06/06 10:44:32;;;;;;;3.70;2.60;;;26.70;38.50;;;;;;5195085;28;20452;-45
2023/06/06 10:47:21;;;;;;;3.30;3.00;;;26.80;38.50;;;;;;5198270;28;21026;-45
2023/06/06 10:50:12;;;;;;;3.97;2.90;;;26.70;38.50;;;;;;5183110;28;20481;-45
2023/06/06 10:52:51;;;;;;;3.20;2.90;;;26.50;39.10;;;;;;5202774;28;20844;-45
2023/06/06 10:55:28;;;;;;;3.63;2.90;;;26.50;39.10;;;;;;5202194;28;20454;-45
2023/06/06 10:58:13;;;;;;;2.50;2.40;;;26.60;38.60;;;;;;5197683;28;20482;-45
2023/06/06 11:00:46;;;;;;;2.60;2.47;;;26.90;38.70;;;;;;5206242;28;20448;-46
2023/06/06 11:03:37;;;;;;;6.47;4.37;;;27.60;38.40;;;;;;5202013;28;20911;-45
2023/06/06 11:06:16;;;;;;;3.13;2.77;;;28.20;37.60;;;;;;5200524;28;20473;-45
2023/06/06 11:08:55;;;;;;;4.10;2.90;;;28.30;36.40;;;;;;5200730;28;20465;-44
2023/06/06 11:11:30;;;;;;;3.00;2.50;;;28.50;36.30;;;;;;5180793;28;20529;-46
2023/06/06 11:14:03;;;;;;;4.83;3.30;;;28.60;35.70;;;;;;5208375;28;20553;-44
2023/06/06 11:16:40;;;;;;;3.00;2.70;;;28.40;35.70;;;;;;5214211;28;20439;-45
2023/06/06 11:19:18;;;;;;;3.70;2.97;;;28.40;35.20;;;;;;5204402;28;20505;-46
2023/06/06 11:21:50;;;;;;;3.27;3.07;;;28.40;35.10;;;;;;5205284;28;20783;-45
2023/06/06 11:24:21;;;;;;;2.40;2.30;;;28.50;35.00;;;;;;5193732;28;20477;-45
2023/06/06 11:26:51;;;;;;;2.33;2.23;;;28.50;35.20;;;;;;5186691;28;20475;-46
2023/06/06 11:29:23;;;;;;;2.97;2.77;;;28.70;35.00;;;;;;5195969;28;20218;-45
2023/06/06 11:31:53;;;;;;;2.87;2.50;;;28.50;34.90;;;;;;5201689;28;20196;-45
2023/06/06 11:34:24;;;;;;;6.30;3.50;;;28.00;35.30;;;;;;5183923;28;20624;-46
2023/06/06 11:36:56;;;;;;;2.63;2.40;;;27.40;35.80;;;;;;5182803;28;20214;-47
2023/06/06 11:39:28;;;;;;;9.47;3.17;;;27.00;36.50;;;;;;5203326;28;20490;-44
2023/06/06 11:41:58;;;;;;;26.53;3.43;;;26.60;36.70;;;;;;5186583;28;20925;-44
2023/06/06 11:44:35;;;;;;;4.00;2.40;;;26.20;37.60;;;;;;5202341;28;20682;-45
2023/06/06 11:47:08;;;;;;;4.07;3.60;;;25.90;37.70;;;;;;5183869;28;20175;-45
2023/06/06 11:49:45;;;;;;;4.83;2.40;;;25.80;37.80;;;;;;5195819;28;20501;-46
2023/06/06 11:52:16;;;;;;;6.63;2.70;;;25.60;37.90;;;;;;5199509;28;20441;-46
2023/06/06 11:54:57;;;;;;;3.77;2.73;;;25.60;38.60;;;;;;5209538;28;20438;-46
2023/06/06 11:57:28;;;;;;;2.70;2.57;;;25.80;38.20;;;;;;5210445;28;20816;-46
2023/06/06 11:59:59;;;;;;;4.40;3.10;;;26.00;38.10;;;;;;5201740;28;20437;-45
2023/06/06 12:02:29;;;;;;;5.60;3.10;;;26.30;37.90;;;;;;5180319;28;20180;-44
2023/06/06 12:05:01;;;;;;;8.20;3.03;;;26.30;36.80;;;;;;5201941;28;20261;-45
2023/06/06 12:07:33;;;;;;;2.63;2.40;;;26.10;36.50;;;;;;5199670;28;20177;-44
2023/06/06 12:10:05;;;;;;;6.20;3.10;;;25.60;37.00;;;;;;5183867;28;20449;-45
2023/06/06 12:12:45;;;;;;;3.83;2.43;;;25.50;37.50;;;;;;5206489;28;20608;-45
2023/06/06 12:15:15;;;;;;;3.07;2.67;;;25.30;38.10;;;;;;5204430;28;20828;-45
2023/06/06 12:17:46;;;;;;;8.47;2.87;;;25.10;38.00;;;;;;5199902;28;20465;-46
2023/06/06 12:20:24;;;;;;;3.63;2.80;;;25.30;38.60;;;;;;5185284;28;20245;-47
2023/06/06 12:22:54;;;;;;;6.40;2.80;;;25.60;38.20;;;;;;5182459;28;20195;-45
2023/06/06 12:25:26;;;;;;;10.17;2.87;;;26.00;37.50;;;;;;5186243;28;20462;-44
2023/06/06 12:28:13;;;;;;;6.63;3.00;;;26.40;36.30;;;;;;5200027;28;20188;-46
2023/06/06 12:30:44;;;;;;;2.53;2.40;;;26.40;36.70;;;;;;5193039;28;20528;-45
2023/06/06 12:33:15;;;;;;;2.73;2.13;;;26.30;36.50;;;;;;5183172;28;20782;-44
2023/06/06 12:35:48;;;;;;;3.20;2.90;;;26.30;36.20;;;;;;5178652;28;20955;-45
2023/06/06 12:38:19;;;;;;;3.03;2.73;;;26.60;36.50;;;;;;5182111;28;20505;-46
2023/06/06 12:40:56;;;;;;;3.57;2.50;;;26.50;36.10;;;;;;5202382;28;20809;-46
2023/06/06 12:43:27;;;;;;;5.10;4.63;;;26.40;36.40;;;;;;5196867;28;20456;-45
2023/06/06 12:45:57;;;;;;;3.03;2.83;;;26.20;37.30;;;;;;5211872;28;20441;-46
2023/06/06 12:48:28;;;;;;;6.60;3.10;;;25.80;37.20;;;;;;5208243;28;20175;-46
2023/06/06 12:50:59;;;;;;;3.27;2.97;;;25.60;37.90;;;;;;5186180;28;20785;-46
2023/06/06 12:53:29;;;;;;;3.50;2.60;;;25.80;38.00;;;;;;5199550;28;20203;-47
2023/06/06 12:56:01;;;;;;;2.90;2.70;;;25.90;37.40;;;;;;5186259;28;20204;-45
2023/06/06 12:58:34;;;;;;;3.17;2.73;;;26.20;37.30;;;;;;5201025;28;20534;-44
2023/06/06 13:01:05;;;;;;;2.83;2.73;;;26.20;37.80;;;;;;5215360;28;20516;-48
2023/06/06 13:03:35;;;;;;;3.70;2.90;;;26.30;37.30;;;;;;5200511;28;20525;-46
2023/06/06 13:06:06;;;;;;;3.20;2.87;;;26.50;37.00;;;;;;5200924;28;20202;-45
2023/06/06 13:08:37;;;;;;;3.60;3.30;;;26.80;37.00;;;;;;5217062;28;20201;-46
2023/06/06 13:11:07;;;;;;;15.23;3.50;;;26.80;37.00;;;;;;5201295;28;20207;-50
2023/06/06 13:13:39;;;;;;;4.57;3.97;;;26.80;36.20;;;;;;5196371;28;20267;-46